createdAt,value
2023-03-06T00:00:56.818Z,0.77
2023-03-06T00:03:26.232Z,0.69
2023-03-06T00:05:58.766Z,0.75
2023-03-06T00:08:28.622Z,0.62
2023-03-06T00:10:56.826Z,0.42
2023-03-06T00:13:26.824Z,0.64
2023-03-06T00:15:54.320Z,0.44
2023-03-06T00:18:21.624Z,0.59
2023-03-06T00:20:48.882Z,0.63
2023-03-06T00:23:16.109Z,0.58
2023-03-06T00:25:45.298Z,0.60
2023-03-06T00:28:14.893Z,0.67
2023-03-06T00:30:42.493Z,0.47
2023-03-06T00:33:10.009Z,0.48
2023-03-06T00:35:40.157Z,0.25
2023-03-06T00:38:08.562Z,0.41
2023-03-06T00:40:35.819Z,0.35
2023-03-06T00:43:03.113Z,0.49
2023-03-06T00:45:30.444Z,0.54
2023-03-06T00:47:57.688Z,0.59
2023-03-06T00:50:24.968Z,0.58
2023-03-06T00:52:52.655Z,0.58
2023-03-06T00:55:20.046Z,0.40
2023-03-06T00:57:47.359Z,0.44
2023-03-06T01:00:15.378Z,0.38
2023-03-06T01:02:42.673Z,0.40
2023-03-06T01:05:12.892Z,0.44
2023-03-06T01:07:40.199Z,0.35
2023-03-06T01:10:09.311Z,0.40
2023-03-06T01:12:36.607Z,0.44
2023-03-06T01:15:05.846Z,0.50
2023-03-06T01:17:33.036Z,0.48
2023-03-06T01:20:01.468Z,0.36
2023-03-06T01:22:28.726Z,0.29
2023-03-06T01:24:55.846Z,0.20
2023-03-06T01:27:23.269Z,0.29
2023-03-06T01:29:50.529Z,0.45
2023-03-06T01:32:17.793Z,0.37
2023-03-06T01:34:45.104Z,0.23
2023-03-06T01:37:12.427Z,0.29
2023-03-06T01:39:39.618Z,0.12
2023-03-06T01:42:07.429Z,0.17
2023-03-06T01:44:35.018Z,-0.01
2023-03-06T01:47:05.218Z,-0.02
2023-03-06T01:49:37.126Z,-0.17
2023-03-06T01:52:15.782Z,-0.21
2023-03-06T01:54:53.436Z,-0.28
2023-03-06T01:57:57.694Z,-0.32
2023-03-06T02:00:28.282Z,-0.29
2023-03-06T02:03:10.098Z,-0.37
2023-03-06T02:05:39.867Z,-0.23
2023-03-06T02:08:11.891Z,-0.24
2023-03-06T02:11:13.151Z,-0.20
2023-03-06T02:13:43.017Z,-0.25
2023-03-06T02:16:11.210Z,-0.24
2023-03-06T02:18:41.006Z,-0.27
2023-03-06T02:21:13.325Z,-0.31
2023-03-06T02:24:33.151Z,-0.20
2023-03-06T02:27:03.139Z,-0.18
2023-03-06T02:29:31.902Z,-0.10
2023-03-06T02:32:02.650Z,-0.10
2023-03-06T02:34:29.754Z,-0.04
2023-03-06T02:37:09.146Z,0.01
2023-03-06T02:39:43.302Z,0.04
2023-03-06T02:42:19.788Z,0.07
2023-03-06T02:44:48.696Z,0.15
2023-03-06T02:47:16.085Z,0.16
2023-03-06T02:49:43.227Z,0.17
2023-03-06T02:52:10.642Z,0.13
2023-03-06T02:54:39.784Z,0.24
2023-03-06T02:57:07.736Z,0.14
2023-03-06T02:59:35.382Z,0.05
2023-03-06T03:02:04.697Z,0.08
2023-03-06T03:04:34.880Z,0.19
2023-03-06T03:07:03.219Z,0.15
2023-03-06T03:09:36.925Z,0.17
2023-03-06T03:12:08.450Z,0.12
2023-03-06T03:14:36.215Z,0.09
2023-03-06T03:17:04.438Z,0.21
2023-03-06T03:19:31.620Z,0.13
2023-03-06T03:21:59.064Z,0.02
2023-03-06T03:24:26.860Z,0.06
2023-03-06T03:26:55.159Z,0.04
2023-03-06T03:29:24.174Z,0.09
2023-03-06T03:31:51.579Z,0.10
2023-03-06T03:34:19.086Z,0.13
2023-03-06T03:36:47.589Z,-0.04
2023-03-06T03:39:15.878Z,0.09
2023-03-06T03:41:43.834Z,0.00
2023-03-06T03:44:12.405Z,-0.07
2023-03-06T03:46:39.900Z,-0.12
2023-03-06T03:49:11.913Z,-0.05
2023-03-06T03:51:39.141Z,0.05
2023-03-06T03:54:06.916Z,0.08
2023-03-06T03:56:40.762Z,0.08
2023-03-06T03:59:14.019Z,0.13
2023-03-06T04:01:49.667Z,0.11
2023-03-06T04:04:17.346Z,0.12
2023-03-06T04:06:45.687Z,0.04
2023-03-06T04:09:14.143Z,0.04
2023-03-06T04:11:42.091Z,0.01
2023-03-06T04:14:09.847Z,0.08
2023-03-06T04:16:37.442Z,0.03
2023-03-06T04:19:04.769Z,0.07
2023-03-06T04:21:32.239Z,0.15
2023-03-06T04:23:59.902Z,0.13
2023-03-06T04:26:27.218Z,0.17
2023-03-06T04:28:56.156Z,0.24
2023-03-06T04:31:23.599Z,0.31
2023-03-06T04:33:50.830Z,0.27
2023-03-06T04:36:30.889Z,0.31
2023-03-06T04:39:03.009Z,0.31
2023-03-06T04:41:31.961Z,0.25
2023-03-06T04:43:59.273Z,0.34
2023-03-06T04:46:26.476Z,0.50
2023-03-06T04:48:53.695Z,0.43
2023-03-06T04:51:21.011Z,0.38
2023-03-06T04:53:48.263Z,0.46
2023-03-06T04:56:15.608Z,0.50
2023-03-06T04:58:45.036Z,0.42
2023-03-06T05:01:12.830Z,0.51
2023-03-06T05:03:40.072Z,0.53
2023-03-06T05:06:07.746Z,0.49
2023-03-06T05:08:35.274Z,0.39
2023-03-06T05:11:02.664Z,0.49
2023-03-06T05:13:29.886Z,0.62
2023-03-06T05:16:06.069Z,0.60
2023-03-06T05:18:34.614Z,0.58
2023-03-06T05:21:02.661Z,0.54
2023-03-06T05:23:32.758Z,0.55
2023-03-06T05:25:59.963Z,0.67
2023-03-06T05:28:28.741Z,0.65
2023-03-06T05:30:56.171Z,0.67
2023-03-06T05:33:23.499Z,0.68
2023-03-06T05:35:50.775Z,0.73
2023-03-06T05:38:18.639Z,0.66
2023-03-06T05:40:46.100Z,0.71
2023-03-06T05:43:13.337Z,0.78
2023-03-06T05:45:41.374Z,0.76
2023-03-06T05:48:09.293Z,0.85
2023-03-06T05:50:36.573Z,0.94
2023-03-06T05:53:03.851Z,0.87
2023-03-06T05:55:31.779Z,0.91
2023-03-06T05:57:59.125Z,0.88
2023-03-06T06:00:26.531Z,0.93
2023-03-06T06:02:53.841Z,1.06
2023-03-06T06:05:21.101Z,1.04
2023-03-06T06:07:48.638Z,0.97
2023-03-06T06:10:15.956Z,1.10
2023-03-06T06:12:43.380Z,1.14
2023-03-06T06:15:11.303Z,1.33
2023-03-06T06:17:38.528Z,1.46
2023-03-06T06:20:06.436Z,1.47
2023-03-06T06:22:37.907Z,1.48
2023-03-06T06:25:06.776Z,1.57
2023-03-06T06:27:34.048Z,1.50
2023-03-06T06:30:01.300Z,1.56
2023-03-06T06:32:28.520Z,1.59
2023-03-06T06:34:55.770Z,1.77
2023-03-06T06:37:22.991Z,1.89
2023-03-06T06:39:50.750Z,2.02
2023-03-06T06:42:33.008Z,2.18
2023-03-06T06:45:05.250Z,2.08
2023-03-06T06:47:34.292Z,1.90
2023-03-06T06:50:01.743Z,1.90
2023-03-06T06:52:29.007Z,1.79
2023-03-06T06:54:56.518Z,2.00
2023-03-06T06:57:23.672Z,2.04
2023-03-06T06:59:53.865Z,2.10
2023-03-06T07:02:21.405Z,2.24
2023-03-06T07:05:02.576Z,2.32
2023-03-06T07:07:35.806Z,2.46
2023-03-06T07:10:08.163Z,2.89
2023-03-06T07:12:35.471Z,2.95
2023-03-06T07:15:05.033Z,3.23
2023-03-06T07:17:32.621Z,3.75
2023-03-06T07:20:00.122Z,3.92
2023-03-06T07:22:28.154Z,4.20
2023-03-06T07:24:56.395Z,4.78
2023-03-06T07:27:26.057Z,5.32
2023-03-06T07:29:53.373Z,6.06
2023-03-06T07:32:21.103Z,6.05
2023-03-06T07:34:48.452Z,6.76
2023-03-06T07:37:15.878Z,6.60
2023-03-06T07:39:43.388Z,5.76
2023-03-06T07:42:14.602Z,5.24
2023-03-06T07:44:50.838Z,5.34
2023-03-06T07:47:18.255Z,5.65
2023-03-06T07:49:45.423Z,7.20
2023-03-06T07:52:12.867Z,9.16
2023-03-06T07:54:40.130Z,9.90
2023-03-06T07:57:07.395Z,9.68
2023-03-06T07:59:34.628Z,10.11
2023-03-06T08:02:02.018Z,9.83
2023-03-06T08:04:30.264Z,9.91
2023-03-06T08:06:59.796Z,11.34
2023-03-06T08:09:27.449Z,12.51
2023-03-06T08:11:54.958Z,12.03
2023-03-06T08:14:22.387Z,12.69
2023-03-06T08:16:51.279Z,13.22
2023-03-06T08:19:18.595Z,14.22
2023-03-06T08:21:45.829Z,13.10
2023-03-06T08:24:16.599Z,13.19
2023-03-06T08:26:43.897Z,14.73
2023-03-06T08:29:11.732Z,15.89
2023-03-06T08:31:44.978Z,17.85
2023-03-06T08:34:16.466Z,17.69
2023-03-06T08:36:44.059Z,17.15
2023-03-06T08:39:11.639Z,15.96
2023-03-06T08:41:42.287Z,15.97
2023-03-06T08:44:10.403Z,15.78
2023-03-06T08:46:38.398Z,14.28
2023-03-06T08:49:05.628Z,15.08
2023-03-06T08:51:33.420Z,15.40
2023-03-06T08:54:00.955Z,15.90
2023-03-06T08:56:32.667Z,16.95
2023-03-06T08:59:03.757Z,16.93
2023-03-06T09:01:37.641Z,15.88
2023-03-06T09:04:11.511Z,14.89
2023-03-06T09:06:41.821Z,13.64
2023-03-06T09:09:09.566Z,13.37
2023-03-06T09:11:37.248Z,13.76
2023-03-06T09:14:05.670Z,13.67
2023-03-06T09:16:33.564Z,14.50
2023-03-06T09:19:00.957Z,15.21
2023-03-06T09:21:28.790Z,15.21
2023-03-06T09:23:56.974Z,15.38
2023-03-06T09:26:32.785Z,15.87
2023-03-06T09:29:07.812Z,17.05
2023-03-06T09:31:35.102Z,17.42
2023-03-06T09:34:02.448Z,16.82
2023-03-06T09:36:30.381Z,15.58
2023-03-06T09:38:57.666Z,15.68
2023-03-06T09:41:31.009Z,16.30
2023-03-06T09:44:06.121Z,18.24
2023-03-06T09:46:54.986Z,18.07
2023-03-06T09:50:06.140Z,16.98
2023-03-06T09:52:51.384Z,17.76
2023-03-06T09:55:24.405Z,15.61
2023-03-06T09:58:20.810Z,16.78
2023-03-06T10:01:24.752Z,17.52
2023-03-06T10:04:18.667Z,16.22
2023-03-06T10:06:59.725Z,17.73
2023-03-06T10:09:43.777Z,17.69
2023-03-06T10:12:43.245Z,16.21
2023-03-06T10:15:32.572Z,16.45
2023-03-06T10:18:00.108Z,16.74
2023-03-06T10:20:43.499Z,15.94
2023-03-06T10:23:35.357Z,15.24
2023-03-06T10:26:11.553Z,15.95
2023-03-06T10:28:45.724Z,16.40
2023-03-06T10:31:22.692Z,15.78
2023-03-06T10:33:52.603Z,14.50
2023-03-06T10:36:22.431Z,15.34
2023-03-06T10:38:49.674Z,10.84
2023-03-06T10:41:23.887Z,10.22
2023-03-06T10:44:00.282Z,10.21
2023-03-06T10:46:43.052Z,10.08
2023-03-06T10:49:34.581Z,8.44
2023-03-06T10:52:20.643Z,7.75
2023-03-06T10:54:48.608Z,7.82
2023-03-06T10:57:32.910Z,7.44
2023-03-06T11:00:05.721Z,6.61
2023-03-06T11:02:41.252Z,6.65
2023-03-06T11:05:20.284Z,6.56
2023-03-06T11:08:00.137Z,6.34
2023-03-06T11:10:31.292Z,6.20
2023-03-06T11:13:21.308Z,6.19
2023-03-06T11:16:17.919Z,6.54
2023-03-06T11:18:59.272Z,6.57
2023-03-06T11:21:37.712Z,6.12
2023-03-06T11:24:20.025Z,6.05
2023-03-06T11:27:03.116Z,6.22
2023-03-06T11:29:47.170Z,6.13
2023-03-06T11:32:33.301Z,5.79
2023-03-06T11:35:13.898Z,5.48
2023-03-06T11:37:57.462Z,5.44
2023-03-06T11:40:48.253Z,5.26
2023-03-06T11:43:46.963Z,5.32
2023-03-06T11:46:29.163Z,5.32
2023-03-06T11:49:24.329Z,5.33
2023-03-06T11:52:06.508Z,5.33
2023-03-06T11:54:33.794Z,5.45
2023-03-06T11:57:12.585Z,5.59
2023-03-06T12:00:22.865Z,5.70
2023-03-06T12:03:09.529Z,5.57
2023-03-06T12:05:40.531Z,5.55
2023-03-06T12:08:53.983Z,5.39
2023-03-06T12:11:32.797Z,5.53
2023-03-06T12:14:20.330Z,5.13
2023-03-06T12:16:59.379Z,4.98
2023-03-06T12:20:12.703Z,4.70
2023-03-06T12:22:58.095Z,4.53
2023-03-06T12:26:00.785Z,4.53
2023-03-06T12:28:27.894Z,4.39
2023-03-06T12:31:25.838Z,4.26
2023-03-06T12:34:11.140Z,4.27
2023-03-06T12:37:12.152Z,4.44
2023-03-06T12:40:00.513Z,4.60
2023-03-06T12:43:05.521Z,4.73
2023-03-06T12:45:37.322Z,4.60
2023-03-06T12:48:16.419Z,4.58
2023-03-06T12:50:44.709Z,4.61
2023-03-06T12:53:30.780Z,4.98
2023-03-06T12:56:00.777Z,5.05
2023-03-06T12:58:30.708Z,5.23
2023-03-06T13:01:37.851Z,5.35
2023-03-06T13:05:00.587Z,5.60
2023-03-06T13:08:04.664Z,5.30
2023-03-06T13:10:35.159Z,5.39
2023-03-06T13:13:26.138Z,5.34
2023-03-06T13:16:13.156Z,5.16
2023-03-06T13:19:12.218Z,5.18
2023-03-06T13:21:42.604Z,5.46
2023-03-06T13:24:25.900Z,5.59
2023-03-06T13:26:58.059Z,5.39
2023-03-06T13:29:37.723Z,5.60
2023-03-06T13:32:14.850Z,5.41
2023-03-06T13:34:51.700Z,5.30
2023-03-06T13:37:20.020Z,5.78
2023-03-06T13:39:55.848Z,5.93
2023-03-06T13:42:37.304Z,6.32
2023-03-06T13:45:34.529Z,6.29
2023-03-06T13:48:24.916Z,6.38
2023-03-06T13:50:51.234Z,6.57
2023-03-06T13:54:21.040Z,6.51
2023-03-06T13:57:09.161Z,6.50
2023-03-06T13:59:57.037Z,6.79
2023-03-06T14:03:01.654Z,6.83
2023-03-06T14:05:45.564Z,6.57
2023-03-06T14:08:31.413Z,6.61
2023-03-06T14:11:21.180Z,6.12
2023-03-06T14:13:56.056Z,5.77
2023-03-06T14:16:29.100Z,5.62
2023-03-06T14:18:59.328Z,4.72
2023-03-06T14:21:47.355Z,4.88
2023-03-06T14:24:20.673Z,4.82
2023-03-06T14:26:51.733Z,4.79
2023-03-06T14:29:25.728Z,4.68
2023-03-06T14:31:56.680Z,4.72
2023-03-06T14:34:31.189Z,4.74
2023-03-06T14:37:08.180Z,4.70
2023-03-06T14:39:41.886Z,4.76
2023-03-06T14:42:16.320Z,4.95
2023-03-06T14:44:43.799Z,4.83
2023-03-06T14:47:28.854Z,5.02
2023-03-06T14:50:24.392Z,4.94
2023-03-06T14:53:14.012Z,4.95
2023-03-06T14:55:50.804Z,4.27
2023-03-06T14:58:30.856Z,4.30
2023-03-06T15:01:04.733Z,4.27
2023-03-06T15:03:55.235Z,3.88
2023-03-06T15:06:40.539Z,3.93
2023-03-06T15:09:25.307Z,3.94
2023-03-06T15:12:08.036Z,3.92
2023-03-06T15:14:42.230Z,3.93
2023-03-06T15:17:28.325Z,4.17
2023-03-06T15:20:01.099Z,4.20
2023-03-06T15:22:43.622Z,4.09
2023-03-06T15:25:46.744Z,4.02
2023-03-06T15:28:39.573Z,4.01
2023-03-06T15:31:31.660Z,4.06
2023-03-06T15:34:09.224Z,4.02
2023-03-06T15:36:44.516Z,3.93
2023-03-06T15:39:34.129Z,3.81
2023-03-06T15:42:25.053Z,3.96
2023-03-06T15:44:58.063Z,3.68
2023-03-06T15:47:25.404Z,3.50
2023-03-06T15:49:53.393Z,3.41
2023-03-06T15:52:23.853Z,3.40
2023-03-06T15:54:51.307Z,3.45
2023-03-06T15:57:29.468Z,3.62
2023-03-06T15:59:58.086Z,3.60
2023-03-06T16:02:25.422Z,3.43
2023-03-06T16:04:52.809Z,3.40
2023-03-06T16:07:20.802Z,3.30
2023-03-06T16:09:48.209Z,3.25
2023-03-06T16:12:22.880Z,3.29
2023-03-06T16:14:50.218Z,3.35
2023-03-06T16:17:18.208Z,3.46
2023-03-06T16:19:45.677Z,3.32
2023-03-06T16:22:13.084Z,3.39
2023-03-06T16:24:40.713Z,3.48
2023-03-06T16:27:15.427Z,3.48
2023-03-06T16:29:42.775Z,3.27
2023-03-06T16:32:11.323Z,3.40
2023-03-06T16:34:38.600Z,3.41
2023-03-06T16:37:12.797Z,3.44
2023-03-06T16:39:40.057Z,3.51
2023-03-06T16:42:07.653Z,3.42
2023-03-06T16:44:34.882Z,3.19
2023-03-06T16:47:02.161Z,3.10
2023-03-06T16:49:29.537Z,3.27
2023-03-06T16:51:56.892Z,3.15
2023-03-06T16:54:26.324Z,3.29
2023-03-06T16:56:53.568Z,3.29
2023-03-06T16:59:20.847Z,3.35
2023-03-06T17:01:48.130Z,3.10
2023-03-06T17:04:15.547Z,3.13
2023-03-06T17:06:43.322Z,3.22
2023-03-06T17:09:11.110Z,3.08
2023-03-06T17:11:43.477Z,3.17
2023-03-06T17:14:10.785Z,3.17
2023-03-06T17:16:40.501Z,3.28
2023-03-06T17:19:08.719Z,3.27
2023-03-06T17:21:38.594Z,3.23
2023-03-06T17:24:06.565Z,3.23
2023-03-06T17:26:33.994Z,3.23
2023-03-06T17:29:01.488Z,3.02
2023-03-06T17:31:29.285Z,2.99
2023-03-06T17:33:59.292Z,2.84
2023-03-06T17:36:31.381Z,2.82
2023-03-06T17:39:00.753Z,2.81
2023-03-06T17:41:28.640Z,2.87
2023-03-06T17:43:57.833Z,2.92
2023-03-06T17:46:25.833Z,2.93
2023-03-06T17:48:53.223Z,2.91
2023-03-06T17:51:20.705Z,2.85
2023-03-06T17:53:47.976Z,2.93
2023-03-06T17:56:15.914Z,2.88
2023-03-06T17:58:43.691Z,2.78
2023-03-06T18:01:19.087Z,2.65
2023-03-06T18:03:49.425Z,2.63
2023-03-06T18:06:18.678Z,2.77
2023-03-06T18:08:46.606Z,2.77
2023-03-06T18:11:15.571Z,2.71
2023-03-06T18:13:44.549Z,2.74
2023-03-06T18:16:14.625Z,2.69
2023-03-06T18:18:42.149Z,2.67
2023-03-06T18:21:16.861Z,2.56
2023-03-06T18:23:44.481Z,2.62
2023-03-06T18:26:25.378Z,2.58
2023-03-06T18:28:56.497Z,2.57
2023-03-06T18:31:31.800Z,2.59
2023-03-06T18:34:09.328Z,2.55
2023-03-06T18:36:37.546Z,2.59
2023-03-06T18:39:08.953Z,2.62
2023-03-06T18:41:36.732Z,2.60
2023-03-06T18:44:05.208Z,2.49
2023-03-06T18:46:38.447Z,2.46
2023-03-06T18:49:06.717Z,2.52
2023-03-06T18:51:34.576Z,2.50
2023-03-06T18:54:04.140Z,2.49
2023-03-06T18:56:31.904Z,2.57
2023-03-06T18:59:07.194Z,2.54
2023-03-06T19:01:35.085Z,2.54
2023-03-06T19:04:04.703Z,2.59
2023-03-06T19:06:32.497Z,2.48
2023-03-06T19:09:01.782Z,2.53
2023-03-06T19:11:32.101Z,2.47
2023-03-06T19:13:59.611Z,2.54
2023-03-06T19:16:30.253Z,2.62
2023-03-06T19:18:57.693Z,2.59
2023-03-06T19:21:27.683Z,2.57
2023-03-06T19:23:56.391Z,2.60
2023-03-06T19:26:23.960Z,2.51
2023-03-06T19:28:52.596Z,2.51
2023-03-06T19:31:26.784Z,2.55
2023-03-06T19:34:19.299Z,2.52
2023-03-06T19:36:46.685Z,2.47
2023-03-06T19:40:29.747Z,2.50
2023-03-06T19:43:24.112Z,2.57
2023-03-06T19:45:51.609Z,2.62
2023-03-06T19:48:20.160Z,2.61
2023-03-06T19:51:16.195Z,2.60
2023-03-06T19:53:43.640Z,2.67
2023-03-06T19:56:26.147Z,2.57
2023-03-06T19:58:53.882Z,2.65
2023-03-06T20:01:25.027Z,2.62
2023-03-06T20:03:59.922Z,2.77
2023-03-06T20:06:31.671Z,2.79
2023-03-06T20:08:59.326Z,2.77
2023-03-06T20:11:31.991Z,2.84
2023-03-06T20:14:03.051Z,2.87
2023-03-06T20:16:31.710Z,2.85
2023-03-06T20:19:01.110Z,2.80
2023-03-06T20:21:31.507Z,2.91
2023-03-06T20:24:26.130Z,2.88
2023-03-06T20:26:57.566Z,2.97
2023-03-06T20:29:28.365Z,2.92
2023-03-06T20:31:57.802Z,2.94
2023-03-06T20:34:26.819Z,2.98
2023-03-06T20:36:54.485Z,2.99
2023-03-06T20:39:22.620Z,2.97
2023-03-06T20:41:50.373Z,2.97
2023-03-06T20:44:19.959Z,2.83
2023-03-06T20:46:48.341Z,2.87
2023-03-06T20:49:15.690Z,2.83
2023-03-06T20:51:43.186Z,2.88
2023-03-06T20:54:14.363Z,2.95
2023-03-06T20:56:47.352Z,3.01
2023-03-06T21:02:06.795Z,2.84
2023-03-06T21:04:34.540Z,2.79
2023-03-06T21:07:01.884Z,2.77
2023-03-06T21:09:29.157Z,2.71
2023-03-06T21:12:21.297Z,2.67
2023-03-06T21:14:48.732Z,2.52
2023-03-06T21:17:16.053Z,2.56
2023-03-06T21:19:43.440Z,2.38
2023-03-06T21:22:10.826Z,2.38
2023-03-06T21:24:38.252Z,2.30
2023-03-06T21:27:05.728Z,2.24
2023-03-06T21:29:32.947Z,2.13
2023-03-06T21:32:00.327Z,2.08
2023-03-06T21:34:27.544Z,2.02
2023-03-06T21:36:54.815Z,2.08
2023-03-06T21:39:22.027Z,2.08
2023-03-06T21:41:49.414Z,2.16
2023-03-06T21:44:16.711Z,2.09
2023-03-06T21:46:44.058Z,2.07
2023-03-06T21:49:11.220Z,2.15
2023-03-06T21:51:38.403Z,2.14
2023-03-06T21:54:06.699Z,2.06
2023-03-06T21:56:33.926Z,2.14
2023-03-06T21:59:01.499Z,2.05
2023-03-06T22:01:30.019Z,1.98
2023-03-06T22:03:58.886Z,1.93
2023-03-06T22:06:28.634Z,1.85
2023-03-06T22:08:57.883Z,1.81
2023-03-06T22:11:28.388Z,1.81
2023-03-06T22:13:55.713Z,1.87
2023-03-06T22:16:22.991Z,2.02
2023-03-06T22:18:52.114Z,2.01
2023-03-06T22:21:21.736Z,2.00
2023-03-06T22:23:53.441Z,2.04
2023-03-06T22:26:21.441Z,2.08
2023-03-06T22:28:48.871Z,2.20
2023-03-06T22:31:25.821Z,2.25
2023-03-06T22:33:55.649Z,2.21
2023-03-06T22:36:24.255Z,2.28
2023-03-06T22:38:56.438Z,2.40
2023-03-06T22:41:26.877Z,2.44
2023-03-06T22:43:59.879Z,2.49
2023-03-06T22:46:27.916Z,2.53
2023-03-06T22:49:02.393Z,2.54
2023-03-06T22:51:29.889Z,2.55
2023-03-06T22:53:57.108Z,2.50
2023-03-06T22:56:24.860Z,2.48
2023-03-06T22:58:52.262Z,2.55
2023-03-06T23:01:23.134Z,2.48
2023-03-06T23:03:53.809Z,2.53
2023-03-06T23:06:34.242Z,2.48
2023-03-06T23:09:23.650Z,2.63
2023-03-06T23:12:11.648Z,2.59
2023-03-06T23:14:57.818Z,2.63
2023-03-06T23:17:43.809Z,2.67
2023-03-06T23:20:30.056Z,2.71
2023-03-06T23:23:16.194Z,2.74
2023-03-06T23:25:44.549Z,2.70
2023-03-06T23:28:12.070Z,2.66
2023-03-06T23:30:40.211Z,2.62
2023-03-06T23:33:08.470Z,2.50
2023-03-06T23:35:39.006Z,2.58
2023-03-06T23:38:06.615Z,2.57
2023-03-06T23:40:34.833Z,2.65
2023-03-06T23:43:03.584Z,2.55
2023-03-06T23:45:31.475Z,2.56
2023-03-06T23:47:59.153Z,2.57
2023-03-06T23:50:26.742Z,2.46
2023-03-06T23:52:55.078Z,2.52
2023-03-06T23:55:22.479Z,2.54
2023-03-06T23:57:49.686Z,2.53
